sensor_id;sensor_type;location;lat;lon;timestamp;temperature;humidity
13115;DHT22;6623;52.120;8.660;2022-10-04T00:01:14;11.90;86.60
13115;DHT22;6623;52.120;8.660;2022-10-04T00:03:48;10.80;86.10
13115;DHT22;6623;52.120;8.660;2022-10-04T00:06:22;10.70;86.10
13115;DHT22;6623;52.120;8.660;2022-10-04T00:11:28;10.70;86.00
13115;DHT22;6623;52.120;8.660;2022-10-04T00:14:03;11.80;86.70
13115;DHT22;6623;52.120;8.660;2022-10-04T00:16:38;11.60;86.60
13115;DHT22;6623;52.120;8.660;2022-10-04T00:24:25;10.80;86.40
13115;DHT22;6623;52.120;8.660;2022-10-04T00:29:30;10.70;86.40
13115;DHT22;6623;52.120;8.660;2022-10-04T00:34:47;11.50;86.90
13115;DHT22;6623;52.120;8.660;2022-10-04T00:37:21;10.80;86.40
13115;DHT22;6623;52.120;8.660;2022-10-04T00:40:08;10.70;86.40
13115;DHT22;6623;52.120;8.660;2022-10-04T00:42:55;10.80;86.40
13115;DHT22;6623;52.120;8.660;2022-10-04T00:45:44;10.80;86.40
13115;DHT22;6623;52.120;8.660;2022-10-04T00:48:36;10.80;86.40
13115;DHT22;6623;52.120;8.660;2022-10-04T00:51:34;10.70;86.40
13115;DHT22;6623;52.120;8.660;2022-10-04T00:54:16;10.70;86.40
13115;DHT22;6623;52.120;8.660;2022-10-04T00:56:50;10.80;86.40
13115;DHT22;6623;52.120;8.660;2022-10-04T01:02:02;11.70;87.00
13115;DHT22;6623;52.120;8.660;2022-10-04T01:04:40;10.80;86.50
13115;DHT22;6623;52.120;8.660;2022-10-04T01:07:08;10.50;86.30
13115;DHT22;6623;52.120;8.660;2022-10-04T01:09:47;10.80;86.50
13115;DHT22;6623;52.120;8.660;2022-10-04T01:12:25;10.80;86.50
13115;DHT22;6623;52.120;8.660;2022-10-04T01:15:06;11.50;86.90
13115;DHT22;6623;52.120;8.660;2022-10-04T01:18:04;11.20;86.60
13115;DHT22;6623;52.120;8.660;2022-10-04T01:20:32;10.60;86.20
13115;DHT22;6623;52.120;8.660;2022-10-04T01:22:58;10.50;86.20
13115;DHT22;6623;52.120;8.660;2022-10-04T01:25:47;11.30;86.60
13115;DHT22;6623;52.120;8.660;2022-10-04T01:28:13;10.80;86.30
13115;DHT22;6623;52.120;8.660;2022-10-04T01:30:43;10.90;86.30
13115;DHT22;6623;52.120;8.660;2022-10-04T01:33:10;10.70;86.10
13115;DHT22;6623;52.120;8.660;2022-10-04T01:35:36;12.00;86.90
13115;DHT22;6623;52.120;8.660;2022-10-04T01:38:03;12.00;87.00
13115;DHT22;6623;52.120;8.660;2022-10-04T01:40:38;10.80;86.40
13115;DHT22;6623;52.120;8.660;2022-10-04T01:43:11;10.90;86.40
13115;DHT22;6623;52.120;8.660;2022-10-04T01:45:52;11.10;86.60
13115;DHT22;6623;52.120;8.660;2022-10-04T01:48:23;10.90;86.40
13115;DHT22;6623;52.120;8.660;2022-10-04T01:51:01;11.30;86.60
13115;DHT22;6623;52.120;8.660;2022-10-04T01:53:33;10.80;86.30
13115;DHT22;6623;52.120;8.660;2022-10-04T01:56:18;11.10;86.50
13115;DHT22;6623;52.120;8.660;2022-10-04T01:58:51;10.80;86.40
13115;DHT22;6623;52.120;8.660;2022-10-04T02:01:44;10.80;86.40
13115;DHT22;6623;52.120;8.660;2022-10-04T02:04:27;10.80;86.40
13115;DHT22;6623;52.120;8.660;2022-10-04T02:06:58;10.80;86.30
13115;DHT22;6623;52.120;8.660;2022-10-04T02:09:27;10.80;86.50
13115;DHT22;6623;52.120;8.660;2022-10-04T02:11:54;10.90;86.50
13115;DHT22;6623;52.120;8.660;2022-10-04T02:14:32;10.90;86.60
13115;DHT22;6623;52.120;8.660;2022-10-04T02:17:00;10.80;86.60
13115;DHT22;6623;52.120;8.660;2022-10-04T02:19:34;11.00;86.70
13115;DHT22;6623;52.120;8.660;2022-10-04T02:22:04;11.20;86.70
13115;DHT22;6623;52.120;8.660;2022-10-04T02:24:36;11.70;86.90
13115;DHT22;6623;52.120;8.660;2022-10-04T02:27:03;11.60;86.80
13115;DHT22;6623;52.120;8.660;2022-10-04T02:29:33;11.50;86.90
13115;DHT22;6623;52.120;8.660;2022-10-04T02:31:59;11.10;86.90
13115;DHT22;6623;52.120;8.660;2022-10-04T02:34:45;10.80;86.60
13115;DHT22;6623;52.120;8.660;2022-10-04T02:37:11;11.30;87.40
13115;DHT22;6623;52.120;8.660;2022-10-04T02:42:26;10.80;87.00
13115;DHT22;6623;52.120;8.660;2022-10-04T02:45:03;10.80;86.40
13115;DHT22;6623;52.120;8.660;2022-10-04T02:47:39;10.60;86.20
13115;DHT22;6623;52.120;8.660;2022-10-04T02:50:35;10.90;86.40
13115;DHT22;6623;52.120;8.660;2022-10-04T02:56:08;10.80;86.90
13115;DHT22;6623;52.120;8.660;2022-10-04T02:58:38;11.30;86.60
13115;DHT22;6623;52.120;8.660;2022-10-04T03:01:16;11.30;86.70
13115;DHT22;6623;52.120;8.660;2022-10-04T03:03:44;10.70;86.50
13115;DHT22;6623;52.120;8.660;2022-10-04T03:06:14;11.50;87.10
13115;DHT22;6623;52.120;8.660;2022-10-04T03:11:09;11.00;87.00
13115;DHT22;6623;52.120;8.660;2022-10-04T03:13:38;10.70;86.90
13115;DHT22;6623;52.120;8.660;2022-10-04T03:16:06;12.10;87.70
13115;DHT22;6623;52.120;8.660;2022-10-04T03:18:34;10.80;87.00
13115;DHT22;6623;52.120;8.660;2022-10-04T03:21:01;11.90;87.60
13115;DHT22;6623;52.120;8.660;2022-10-04T03:23:30;10.80;87.00
13115;DHT22;6623;52.120;8.660;2022-10-04T03:26:08;10.80;87.60
13115;DHT22;6623;52.120;8.660;2022-10-04T03:28:38;10.70;86.80
13115;DHT22;6623;52.120;8.660;2022-10-04T03:31:04;10.70;86.80
13115;DHT22;6623;52.120;8.660;2022-10-04T03:33:30;10.90;86.90
13115;DHT22;6623;52.120;8.660;2022-10-04T03:35:58;10.80;87.00
13115;DHT22;6623;52.120;8.660;2022-10-04T03:38:26;11.30;87.20
13115;DHT22;6623;52.120;8.660;2022-10-04T03:40:58;10.80;87.00
13115;DHT22;6623;52.120;8.660;2022-10-04T03:43:28;10.80;86.90
13115;DHT22;6623;52.120;8.660;2022-10-04T03:45:56;10.90;87.00
13115;DHT22;6623;52.120;8.660;2022-10-04T03:48:38;10.80;87.00
13115;DHT22;6623;52.120;8.660;2022-10-04T03:51:13;10.80;87.00
13115;DHT22;6623;52.120;8.660;2022-10-04T03:53:42;11.20;87.10
13115;DHT22;6623;52.120;8.660;2022-10-04T03:56:12;11.60;87.30
13115;DHT22;6623;52.120;8.660;2022-10-04T03:58:40;11.50;87.20
13115;DHT22;6623;52.120;8.660;2022-10-04T04:01:18;11.10;87.00
13115;DHT22;6623;52.120;8.660;2022-10-04T04:12:37;11.30;87.10
13115;DHT22;6623;52.120;8.660;2022-10-04T04:15:08;10.70;86.70
13115;DHT22;6623;52.120;8.660;2022-10-04T04:17:45;10.80;86.80
13115;DHT22;6623;52.120;8.660;2022-10-04T04:20:33;10.80;86.80
13115;DHT22;6623;52.120;8.660;2022-10-04T04:23:31;10.80;86.80
13115;DHT22;6623;52.120;8.660;2022-10-04T04:28:42;10.80;86.80
13115;DHT22;6623;52.120;8.660;2022-10-04T04:31:28;11.80;87.40
13115;DHT22;6623;52.120;8.660;2022-10-04T04:34:25;10.80;86.80
13115;DHT22;6623;52.120;8.660;2022-10-04T04:36:57;11.00;86.90
13115;DHT22;6623;52.120;8.660;2022-10-04T04:39:25;10.60;86.60
13115;DHT22;6623;52.120;8.660;2022-10-04T04:42:14;10.80;86.60
13115;DHT22;6623;52.120;8.660;2022-10-04T04:45:02;10.80;86.70
13115;DHT22;6623;52.120;8.660;2022-10-04T04:47:41;11.80;87.20
13115;DHT22;6623;52.120;8.660;2022-10-04T04:50:14;10.80;86.60
13115;DHT22;6623;52.120;8.660;2022-10-04T04:52:52;11.70;87.20
13115;DHT22;6623;52.120;8.660;2022-10-04T04:55:22;10.80;86.70
13115;DHT22;6623;52.120;8.660;2022-10-04T04:57:56;10.90;86.70
13115;DHT22;6623;52.120;8.660;2022-10-04T05:00:35;10.80;86.70
13115;DHT22;6623;52.120;8.660;2022-10-04T05:03:05;10.70;86.60
13115;DHT22;6623;52.120;8.660;2022-10-04T05:05:34;11.60;87.00
13115;DHT22;6623;52.120;8.660;2022-10-04T05:08:18;10.80;86.60
13115;DHT22;6623;52.120;8.660;2022-10-04T05:10:56;10.80;86.60
13115;DHT22;6623;52.120;8.660;2022-10-04T05:13:38;10.80;86.50
13115;DHT22;6623;52.120;8.660;2022-10-04T05:16:44;12.00;87.20
13115;DHT22;6623;52.120;8.660;2022-10-04T05:19:05;10.80;86.40
13115;DHT22;6623;52.120;8.660;2022-10-04T05:21:33;10.80;86.40
13115;DHT22;6623;52.120;8.660;2022-10-04T05:24:30;10.80;86.50
13115;DHT22;6623;52.120;8.660;2022-10-04T05:27:06;11.80;87.10
13115;DHT22;6623;52.120;8.660;2022-10-04T05:29:36;10.80;86.50
13115;DHT22;6623;52.120;8.660;2022-10-04T05:32:26;10.90;86.50
13115;DHT22;6623;52.120;8.660;2022-10-04T05:34:53;10.80;86.50
13115;DHT22;6623;52.120;8.660;2022-10-04T05:37:44;10.70;86.60
13115;DHT22;6623;52.120;8.660;2022-10-04T05:40:26;10.70;86.60
13115;DHT22;6623;52.120;8.660;2022-10-04T05:42:53;10.70;86.60
13115;DHT22;6623;52.120;8.660;2022-10-04T05:45:26;10.90;86.80
13115;DHT22;6623;52.120;8.660;2022-10-04T05:48:00;10.80;86.80
13115;DHT22;6623;52.120;8.660;2022-10-04T05:50:34;10.70;86.70
13115;DHT22;6623;52.120;8.660;2022-10-04T05:58:51;10.60;86.60
13115;DHT22;6623;52.120;8.660;2022-10-04T06:04:31;11.50;87.50
13115;DHT22;6623;52.120;8.660;2022-10-04T06:19:31;10.70;87.00
13115;DHT22;6623;52.120;8.660;2022-10-04T06:22:13;10.70;87.00
13115;DHT22;6623;52.120;8.660;2022-10-04T06:24:41;10.70;87.00
13115;DHT22;6623;52.120;8.660;2022-10-04T06:27:10;10.70;87.00
13115;DHT22;6623;52.120;8.660;2022-10-04T06:29:46;10.70;87.10
13115;DHT22;6623;52.120;8.660;2022-10-04T06:44:46;10.80;87.60
13115;DHT22;6623;52.120;8.660;2022-10-04T06:47:27;10.80;87.40
13115;DHT22;6623;52.120;8.660;2022-10-04T06:56:22;10.90;87.10
13115;DHT22;6623;52.120;8.660;2022-10-04T06:59:26;10.90;86.80
13115;DHT22;6623;52.120;8.660;2022-10-04T07:02:14;11.00;86.70
13115;DHT22;6623;52.120;8.660;2022-10-04T07:12:31;11.00;87.00
13115;DHT22;6623;52.120;8.660;2022-10-04T07:15:04;12.30;87.70
13115;DHT22;6623;52.120;8.660;2022-10-04T07:17:39;11.00;87.10
13115;DHT22;6623;52.120;8.660;2022-10-04T07:20:28;11.10;87.00
13115;DHT22;6623;52.120;8.660;2022-10-04T07:23:04;10.60;87.00
13115;DHT22;6623;52.120;8.660;2022-10-04T07:25:43;11.20;87.10
13115;DHT22;6623;52.120;8.660;2022-10-04T07:28:11;11.50;86.90
13115;DHT22;6623;52.120;8.660;2022-10-04T07:31:11;12.00;86.90
13115;DHT22;6623;52.120;8.660;2022-10-04T07:33:59;11.90;86.40
13115;DHT22;6623;52.120;8.660;2022-10-04T07:36:37;11.90;85.80
13115;DHT22;6623;52.120;8.660;2022-10-04T07:45:28;12.30;85.70
13115;DHT22;6623;52.120;8.660;2022-10-04T07:47:34;11.50;85.40
13115;DHT22;6623;52.120;8.660;2022-10-04T07:50:21;11.80;85.70
13115;DHT22;6623;52.120;8.660;2022-10-04T07:53:13;11.50;85.50
13115;DHT22;6623;52.120;8.660;2022-10-04T07:55:44;11.40;85.70
13115;DHT22;6623;52.120;8.660;2022-10-04T08:06:18;11.30;86.30
13115;DHT22;6623;52.120;8.660;2022-10-04T08:09:20;11.30;86.60
13115;DHT22;6623;52.120;8.660;2022-10-04T08:19:41;11.40;87.10
13115;DHT22;6623;52.120;8.660;2022-10-04T08:30:22;11.50;87.20
13115;DHT22;6623;52.120;8.660;2022-10-04T08:36:13;11.60;87.00
13115;DHT22;6623;52.120;8.660;2022-10-04T08:38:47;11.60;87.10
13115;DHT22;6623;52.120;8.660;2022-10-04T08:59:31;11.90;87.30
13115;DHT22;6623;52.120;8.660;2022-10-04T09:05:32;12.00;86.70
13115;DHT22;6623;52.120;8.660;2022-10-04T09:14:26;12.20;86.60
13115;DHT22;6623;52.120;8.660;2022-10-04T09:17:20;12.20;86.50
13115;DHT22;6623;52.120;8.660;2022-10-04T09:19:55;12.20;86.00
13115;DHT22;6623;52.120;8.660;2022-10-04T09:23:33;12.50;86.10
13115;DHT22;6623;52.120;8.660;2022-10-04T09:25:54;12.30;85.60
13115;DHT22;6623;52.120;8.660;2022-10-04T09:31:42;12.50;86.10
13115;DHT22;6623;52.120;8.660;2022-10-04T09:48:44;12.90;79.40
13115;DHT22;6623;52.120;8.660;2022-10-04T09:54:17;13.90;77.00
13115;DHT22;6623;52.120;8.660;2022-10-04T10:06:24;13.30;76.30
13115;DHT22;6623;52.120;8.660;2022-10-04T10:09:22;13.40;75.00
13115;DHT22;6623;52.120;8.660;2022-10-04T10:15:24;13.50;74.40
13115;DHT22;6623;52.120;8.660;2022-10-04T10:18:00;13.50;74.70
13115;DHT22;6623;52.120;8.660;2022-10-04T10:20:47;13.50;75.20
13115;DHT22;6623;52.120;8.660;2022-10-04T10:23:44;13.60;74.40
13115;DHT22;6623;52.120;8.660;2022-10-04T10:26:42;13.70;72.80
13115;DHT22;6623;52.120;8.660;2022-10-04T10:35:24;13.70;73.30
13115;DHT22;6623;52.120;8.660;2022-10-04T10:46:06;14.70;74.30
13115;DHT22;6623;52.120;8.660;2022-10-04T10:48:51;13.70;73.10
13115;DHT22;6623;52.120;8.660;2022-10-04T10:57:09;14.10;72.70
13115;DHT22;6623;52.120;8.660;2022-10-04T11:00:05;14.10;71.40
13115;DHT22;6623;52.120;8.660;2022-10-04T11:31:52;14.70;70.10
13115;DHT22;6623;52.120;8.660;2022-10-04T11:34:57;15.70;70.70
13115;DHT22;6623;52.120;8.660;2022-10-04T11:38:04;14.60;70.00
13115;DHT22;6623;52.120;8.660;2022-10-04T11:46:42;14.70;69.30
13115;DHT22;6623;52.120;8.660;2022-10-04T11:57:58;14.90;69.80
13115;DHT22;6623;52.120;8.660;2022-10-04T12:07:21;14.90;69.20
13115;DHT22;6623;52.120;8.660;2022-10-04T12:24:13;15.10;68.80
13115;DHT22;6623;52.120;8.660;2022-10-04T12:33:07;15.20;68.60
13115;DHT22;6623;52.120;8.660;2022-10-04T12:38:52;14.70;68.50
13115;DHT22;6623;52.120;8.660;2022-10-04T12:41:26;15.30;69.20
13115;DHT22;6623;52.120;8.660;2022-10-04T12:44:27;15.30;69.10
13115;DHT22;6623;52.120;8.660;2022-10-04T12:52:21;15.50;68.40
13115;DHT22;6623;52.120;8.660;2022-10-04T12:57:45;15.80;69.00
13115;DHT22;6623;52.120;8.660;2022-10-04T13:00:18;15.50;69.30
13115;DHT22;6623;52.120;8.660;2022-10-04T13:19:43;15.50;68.20
13115;DHT22;6623;52.120;8.660;2022-10-04T13:22:40;15.50;67.00
13115;DHT22;6623;52.120;8.660;2022-10-04T13:28:02;15.50;66.70
13115;DHT22;6623;52.120;8.660;2022-10-04T13:31:09;15.60;66.20
13115;DHT22;6623;52.120;8.660;2022-10-04T13:33:55;15.70;65.00
13115;DHT22;6623;52.120;8.660;2022-10-04T13:39:22;15.60;65.70
13115;DHT22;6623;52.120;8.660;2022-10-04T13:53:00;16.10;65.00
13115;DHT22;6623;52.120;8.660;2022-10-04T13:56:21;15.80;64.30
13115;DHT22;6623;52.120;8.660;2022-10-04T13:59:19;15.70;65.10
13115;DHT22;6623;52.120;8.660;2022-10-04T14:07:56;15.80;65.70
13115;DHT22;6623;52.120;8.660;2022-10-04T14:18:53;15.80;63.50
13115;DHT22;6623;52.120;8.660;2022-10-04T14:21:36;15.90;63.60
13115;DHT22;6623;52.120;8.660;2022-10-04T14:30:33;16.00;63.50
13115;DHT22;6623;52.120;8.660;2022-10-04T14:36:00;15.90;63.70
13115;DHT22;6623;52.120;8.660;2022-10-04T14:41:51;15.90;63.10
13115;DHT22;6623;52.120;8.660;2022-10-04T14:45:00;15.90;64.10
13115;DHT22;6623;52.120;8.660;2022-10-04T14:53:28;16.00;65.20
13115;DHT22;6623;52.120;8.660;2022-10-04T14:56:22;15.90;65.30
13115;DHT22;6623;52.120;8.660;2022-10-04T15:07:35;15.90;65.10
13115;DHT22;6623;52.120;8.660;2022-10-04T15:10:25;15.90;64.10
13115;DHT22;6623;52.120;8.660;2022-10-04T15:13:06;15.90;63.50
13115;DHT22;6623;52.120;8.660;2022-10-04T15:18:36;15.90;63.50
13115;DHT22;6623;52.120;8.660;2022-10-04T15:21:19;15.80;63.90
13115;DHT22;6623;52.120;8.660;2022-10-04T15:26:53;15.80;64.60
13115;DHT22;6623;52.120;8.660;2022-10-04T15:29:28;15.90;65.30
13115;DHT22;6623;52.120;8.660;2022-10-04T15:32:02;16.70;65.30
13115;DHT22;6623;52.120;8.660;2022-10-04T15:34:32;15.80;64.70
13115;DHT22;6623;52.120;8.660;2022-10-04T15:42:22;16.60;66.30
13115;DHT22;6623;52.120;8.660;2022-10-04T15:51:18;15.60;67.00
13115;DHT22;6623;52.120;8.660;2022-10-04T15:56:55;15.60;65.70
13115;DHT22;6623;52.120;8.660;2022-10-04T15:59:54;15.80;66.00
13115;DHT22;6623;52.120;8.660;2022-10-04T16:05:56;15.50;66.60
13115;DHT22;6623;52.120;8.660;2022-10-04T16:19:26;15.40;67.10
13115;DHT22;6623;52.120;8.660;2022-10-04T16:22:14;15.40;67.30
13115;DHT22;6623;52.120;8.660;2022-10-04T16:24:48;15.30;67.40
13115;DHT22;6623;52.120;8.660;2022-10-04T16:33:39;15.20;68.00
13115;DHT22;6623;52.120;8.660;2022-10-04T16:36:20;15.20;68.40
13115;DHT22;6623;52.120;8.660;2022-10-04T16:38:51;15.10;68.50
13115;DHT22;6623;52.120;8.660;2022-10-04T16:41:56;15.10;68.60
13115;DHT22;6623;52.120;8.660;2022-10-04T16:44:34;15.40;69.10
13115;DHT22;6623;52.120;8.660;2022-10-04T16:47:14;15.00;69.00
13115;DHT22;6623;52.120;8.660;2022-10-04T16:49:55;15.50;69.70
13115;DHT22;6623;52.120;8.660;2022-10-04T16:55:00;14.90;70.20
13115;DHT22;6623;52.120;8.660;2022-10-04T16:57:28;14.80;70.60
13115;DHT22;6623;52.120;8.660;2022-10-04T16:59:58;16.00;72.00
13115;DHT22;6623;52.120;8.660;2022-10-04T17:02:58;15.10;71.70
13115;DHT22;6623;52.120;8.660;2022-10-04T17:05:44;14.80;71.80
13115;DHT22;6623;52.120;8.660;2022-10-04T17:13:29;15.30;72.80
13115;DHT22;6623;52.120;8.660;2022-10-04T17:16:11;14.60;72.70
13115;DHT22;6623;52.120;8.660;2022-10-04T17:24:29;14.50;73.40
13115;DHT22;6623;52.120;8.660;2022-10-04T17:30:12;14.40;73.60
13115;DHT22;6623;52.120;8.660;2022-10-04T17:35:45;14.30;74.00
13115;DHT22;6623;52.120;8.660;2022-10-04T17:41:26;14.60;74.70
13115;DHT22;6623;52.120;8.660;2022-10-04T17:44:30;14.10;74.60
13115;DHT22;6623;52.120;8.660;2022-10-04T17:47:02;14.10;75.10
13115;DHT22;6623;52.120;8.660;2022-10-04T17:49:55;14.00;75.30
13115;DHT22;6623;52.120;8.660;2022-10-04T17:52:54;14.80;76.10
13115;DHT22;6623;52.120;8.660;2022-10-04T17:55:47;15.00;76.80
13115;DHT22;6623;52.120;8.660;2022-10-04T18:01:06;13.90;76.80
13115;DHT22;6623;52.120;8.660;2022-10-04T18:03:57;13.90;76.90
13115;DHT22;6623;52.120;8.660;2022-10-04T18:06:38;13.90;77.10
13115;DHT22;6623;52.120;8.660;2022-10-04T18:09:21;13.90;77.10
13115;DHT22;6623;52.120;8.660;2022-10-04T18:12:00;14.20;77.40
13115;DHT22;6623;52.120;8.660;2022-10-04T18:16:56;13.70;77.40
13115;DHT22;6623;52.120;8.660;2022-10-04T18:22:19;14.50;77.90
13115;DHT22;6623;52.120;8.660;2022-10-04T18:24:47;13.70;77.20
13115;DHT22;6623;52.120;8.660;2022-10-04T18:29:44;13.80;77.60
13115;DHT22;6623;52.120;8.660;2022-10-04T18:35:00;14.30;77.80
13115;DHT22;6623;52.120;8.660;2022-10-04T18:37:36;13.60;77.50
13115;DHT22;6623;52.120;8.660;2022-10-04T18:41:03;14.60;78.10
13115;DHT22;6623;52.120;8.660;2022-10-04T18:43:29;13.70;77.80
13115;DHT22;6623;52.120;8.660;2022-10-04T18:48:50;13.40;78.50
13115;DHT22;6623;52.120;8.660;2022-10-04T18:51:26;13.40;78.50
13115;DHT22;6623;52.120;8.660;2022-10-04T18:59:55;13.20;79.20
13115;DHT22;6623;52.120;8.660;2022-10-04T19:05:30;13.20;79.90
13115;DHT22;6623;52.120;8.660;2022-10-04T19:10:43;13.20;80.10
13115;DHT22;6623;52.120;8.660;2022-10-04T19:21:29;13.00;81.00
13115;DHT22;6623;52.120;8.660;2022-10-04T19:24:43;14.00;81.80
13115;DHT22;6623;52.120;8.660;2022-10-04T19:27:18;13.00;81.20
13115;DHT22;6623;52.120;8.660;2022-10-04T19:30:18;13.00;81.90
13115;DHT22;6623;52.120;8.660;2022-10-04T19:39:14;12.90;82.50
13115;DHT22;6623;52.120;8.660;2022-10-04T19:49:56;12.80;83.20
13115;DHT22;6623;52.120;8.660;2022-10-04T19:52:34;12.80;83.30
13115;DHT22;6623;52.120;8.660;2022-10-04T19:58:21;12.80;83.10
13115;DHT22;6623;52.120;8.660;2022-10-04T20:00:49;12.80;83.20
13115;DHT22;6623;52.120;8.660;2022-10-04T20:03:15;12.80;83.30
13115;DHT22;6623;52.120;8.660;2022-10-04T20:05:45;12.60;83.40
13115;DHT22;6623;52.120;8.660;2022-10-04T20:08:16;12.30;83.40
13115;DHT22;6623;52.120;8.660;2022-10-04T20:11:14;12.70;84.40
13115;DHT22;6623;52.120;8.660;2022-10-04T20:13:40;12.60;83.80
13115;DHT22;6623;52.120;8.660;2022-10-04T20:16:06;12.70;84.00
13115;DHT22;6623;52.120;8.660;2022-10-04T20:26:07;12.50;84.40
13115;DHT22;6623;52.120;8.660;2022-10-04T20:33:49;12.50;84.60
13115;DHT22;6623;52.120;8.660;2022-10-04T20:38:51;13.30;85.00
13115;DHT22;6623;52.120;8.660;2022-10-04T20:49:54;12.30;84.70
13115;DHT22;6623;52.120;8.660;2022-10-04T20:52:31;12.30;85.00
13115;DHT22;6623;52.120;8.660;2022-10-04T20:54:59;13.10;85.50
13115;DHT22;6623;52.120;8.660;2022-10-04T20:57:26;13.00;85.50
13115;DHT22;6623;52.120;8.660;2022-10-04T20:59:55;12.50;85.40
13115;DHT22;6623;52.120;8.660;2022-10-04T21:02:23;12.30;85.30
13115;DHT22;6623;52.120;8.660;2022-10-04T21:04:52;12.30;85.30
13115;DHT22;6623;52.120;8.660;2022-10-04T21:07:20;12.50;85.70
13115;DHT22;6623;52.120;8.660;2022-10-04T21:09:47;12.20;85.50
13115;DHT22;6623;52.120;8.660;2022-10-04T21:12:51;12.20;85.40
13115;DHT22;6623;52.120;8.660;2022-10-04T21:17:57;13.00;86.50
13115;DHT22;6623;52.120;8.660;2022-10-04T21:23:27;13.00;85.90
13115;DHT22;6623;52.120;8.660;2022-10-04T21:26:30;13.00;85.70
13115;DHT22;6623;52.120;8.660;2022-10-04T21:28:57;13.50;86.00
13115;DHT22;6623;52.120;8.660;2022-10-04T21:31:23;12.90;86.20
13115;DHT22;6623;52.120;8.660;2022-10-04T21:33:49;12.70;85.60
13115;DHT22;6623;52.120;8.660;2022-10-04T21:36:14;12.90;85.80
13115;DHT22;6623;52.120;8.660;2022-10-04T21:38:40;13.00;85.90
13115;DHT22;6623;52.120;8.660;2022-10-04T21:41:06;13.20;85.90
13115;DHT22;6623;52.120;8.660;2022-10-04T21:43:32;13.90;86.30
13115;DHT22;6623;52.120;8.660;2022-10-04T21:45:58;13.10;85.90
13115;DHT22;6623;52.120;8.660;2022-10-04T21:48:24;12.10;85.30
13115;DHT22;6623;52.120;8.660;2022-10-04T21:50:51;13.60;86.00
13115;DHT22;6623;52.120;8.660;2022-10-04T21:53:18;13.70;86.00
13115;DHT22;6623;52.120;8.660;2022-10-04T21:55:43;13.20;85.70
13115;DHT22;6623;52.120;8.660;2022-10-04T21:58:12;12.00;85.20
13115;DHT22;6623;52.120;8.660;2022-10-04T22:00:39;12.00;85.10
13115;DHT22;6623;52.120;8.660;2022-10-04T22:03:05;13.60;85.80
13115;DHT22;6623;52.120;8.660;2022-10-04T22:05:30;12.30;85.70
13115;DHT22;6623;52.120;8.660;2022-10-04T22:07:56;12.00;84.90
13115;DHT22;6623;52.120;8.660;2022-10-04T22:10:22;13.50;85.80
13115;DHT22;6623;52.120;8.660;2022-10-04T22:12:48;11.90;84.90
13115;DHT22;6623;52.120;8.660;2022-10-04T22:15:14;13.00;85.50
13115;DHT22;6623;52.120;8.660;2022-10-04T22:17:40;11.80;84.80
13115;DHT22;6623;52.120;8.660;2022-10-04T22:20:05;11.90;84.80
13115;DHT22;6623;52.120;8.660;2022-10-04T22:22:31;11.90;84.90
13115;DHT22;6623;52.120;8.660;2022-10-04T22:24:57;11.90;84.90
13115;DHT22;6623;52.120;8.660;2022-10-04T22:27:26;11.80;84.80
13115;DHT22;6623;52.120;8.660;2022-10-04T22:29:54;13.00;85.50
13115;DHT22;6623;52.120;8.660;2022-10-04T22:32:26;11.80;84.80
13115;DHT22;6623;52.120;8.660;2022-10-04T22:34:59;11.80;84.80
13115;DHT22;6623;52.120;8.660;2022-10-04T22:37:26;12.80;85.50
13115;DHT22;6623;52.120;8.660;2022-10-04T22:39:55;13.20;85.70
13115;DHT22;6623;52.120;8.660;2022-10-04T22:42:27;12.80;85.40
13115;DHT22;6623;52.120;8.660;2022-10-04T22:44:54;11.70;85.20
13115;DHT22;6623;52.120;8.660;2022-10-04T22:47:20;11.70;85.10
13115;DHT22;6623;52.120;8.660;2022-10-04T22:49:47;11.90;85.40
13115;DHT22;6623;52.120;8.660;2022-10-04T22:54:45;11.70;85.20
13115;DHT22;6623;52.120;8.660;2022-10-04T22:57:13;12.60;85.60
13115;DHT22;6623;52.120;8.660;2022-10-04T22:59:45;12.50;85.60
13115;DHT22;6623;52.120;8.660;2022-10-04T23:02:14;11.80;85.30
13115;DHT22;6623;52.120;8.660;2022-10-04T23:04:50;11.70;85.20
13115;DHT22;6623;52.120;8.660;2022-10-04T23:07:16;11.70;85.20
13115;DHT22;6623;52.120;8.660;2022-10-04T23:09:42;12.40;85.60
13115;DHT22;6623;52.120;8.660;2022-10-04T23:12:08;11.60;85.20
13115;DHT22;6623;52.120;8.660;2022-10-04T23:14:35;11.90;85.30
13115;DHT22;6623;52.120;8.660;2022-10-04T23:17:15;12.90;85.80
13115;DHT22;6623;52.120;8.660;2022-10-04T23:19:40;11.70;85.10
13115;DHT22;6623;52.120;8.660;2022-10-04T23:22:08;11.60;85.00
13115;DHT22;6623;52.120;8.660;2022-10-04T23:24:38;11.90;85.20
13115;DHT22;6623;52.120;8.660;2022-10-04T23:27:13;12.30;85.50
13115;DHT22;6623;52.120;8.660;2022-10-04T23:29:40;13.00;86.00
13115;DHT22;6623;52.120;8.660;2022-10-04T23:32:14;11.60;85.30
13115;DHT22;6623;52.120;8.660;2022-10-04T23:34:43;11.60;85.30
13115;DHT22;6623;52.120;8.660;2022-10-04T23:37:16;11.60;85.30
13115;DHT22;6623;52.120;8.660;2022-10-04T23:39:43;11.80;85.50
13115;DHT22;6623;52.120;8.660;2022-10-04T23:42:19;11.90;85.60
13115;DHT22;6623;52.120;8.660;2022-10-04T23:44:47;12.80;86.10
13115;DHT22;6623;52.120;8.660;2022-10-04T23:47:18;12.10;85.70
13115;DHT22;6623;52.120;8.660;2022-10-04T23:49:46;11.70;85.40
13115;DHT22;6623;52.120;8.660;2022-10-04T23:52:22;11.70;85.40
13115;DHT22;6623;52.120;8.660;2022-10-04T23:54:50;11.70;85.40
13115;DHT22;6623;52.120;8.660;2022-10-04T23:57:21;11.70;85.40
13115;DHT22;6623;52.120;8.660;2022-10-04T23:59:47;12.30;85.70
